sensor_id;sensor_type;location;lat;lon;timestamp;P1;durP1;ratioP1;P2;durP2;ratioP2
30072;SDS011;16897;52.422;13.678;2022-12-05T00:00:18;59.40;;;27.67;;
30072;SDS011;16897;52.422;13.678;2022-12-05T00:04:19;50.95;;;21.77;;
30072;SDS011;16897;52.422;13.678;2022-12-05T00:08:21;56.00;;;24.38;;
30072;SDS011;16897;52.422;13.678;2022-12-05T00:12:23;44.80;;;21.38;;
30072;SDS011;16897;52.422;13.678;2022-12-05T00:16:26;41.20;;;19.98;;
30072;SDS011;16897;52.422;13.678;2022-12-05T00:20:30;47.45;;;21.48;;
30072;SDS011;16897;52.422;13.678;2022-12-05T00:24:32;55.10;;;25.08;;
30072;SDS011;16897;52.422;13.678;2022-12-05T00:28:34;47.38;;;21.83;;
30072;SDS011;16897;52.422;13.678;2022-12-05T00:32:36;39.00;;;18.70;;
30072;SDS011;16897;52.422;13.678;2022-12-05T00:36:38;42.55;;;20.92;;
30072;SDS011;16897;52.422;13.678;2022-12-05T00:40:40;43.13;;;20.83;;
30072;SDS011;16897;52.422;13.678;2022-12-05T00:44:43;41.10;;;19.85;;
30072;SDS011;16897;52.422;13.678;2022-12-05T00:48:44;46.78;;;21.30;;
30072;SDS011;16897;52.422;13.678;2022-12-05T00:52:47;47.80;;;24.95;;
30072;SDS011;16897;52.422;13.678;2022-12-05T00:56:49;42.53;;;19.95;;
30072;SDS011;16897;52.422;13.678;2022-12-05T01:00:52;45.30;;;20.35;;
30072;SDS011;16897;52.422;13.678;2022-12-05T01:04:54;44.15;;;21.77;;
30072;SDS011;16897;52.422;13.678;2022-12-05T01:08:56;45.15;;;22.02;;
30072;SDS011;16897;52.422;13.678;2022-12-05T01:12:58;41.00;;;21.77;;
30072;SDS011;16897;52.422;13.678;2022-12-05T01:17:00;45.50;;;22.80;;
30072;SDS011;16897;52.422;13.678;2022-12-05T01:21:03;44.97;;;21.55;;
30072;SDS011;16897;52.422;13.678;2022-12-05T01:25:06;41.80;;;19.98;;
30072;SDS011;16897;52.422;13.678;2022-12-05T01:29:09;46.53;;;21.48;;
30072;SDS011;16897;52.422;13.678;2022-12-05T01:33:13;44.58;;;21.33;;
30072;SDS011;16897;52.422;13.678;2022-12-05T01:37:17;40.65;;;20.67;;
30072;SDS011;16897;52.422;13.678;2022-12-05T01:41:23;33.65;;;17.05;;
30072;SDS011;16897;52.422;13.678;2022-12-05T01:45:37;39.20;;;20.45;;
30072;SDS011;16897;52.422;13.678;2022-12-05T01:49:41;40.17;;;19.10;;
30072;SDS011;16897;52.422;13.678;2022-12-05T01:53:43;40.58;;;20.60;;
30072;SDS011;16897;52.422;13.678;2022-12-05T01:57:45;46.25;;;21.27;;
30072;SDS011;16897;52.422;13.678;2022-12-05T02:01:48;41.30;;;19.50;;
30072;SDS011;16897;52.422;13.678;2022-12-05T02:05:51;50.00;;;20.70;;
30072;SDS011;16897;52.422;13.678;2022-12-05T02:09:56;41.10;;;19.13;;
30072;SDS011;16897;52.422;13.678;2022-12-05T02:41:26;36.55;;;18.85;;
30072;SDS011;16897;52.422;13.678;2022-12-05T02:45:34;38.75;;;18.67;;
30072;SDS011;16897;52.422;13.678;2022-12-05T02:49:38;39.70;;;17.95;;
30072;SDS011;16897;52.422;13.678;2022-12-05T02:53:42;35.63;;;16.88;;
30072;SDS011;16897;52.422;13.678;2022-12-05T02:57:47;39.65;;;18.80;;
30072;SDS011;16897;52.422;13.678;2022-12-05T03:01:54;39.15;;;18.80;;
30072;SDS011;16897;52.422;13.678;2022-12-05T03:06:02;41.15;;;18.38;;
30072;SDS011;16897;52.422;13.678;2022-12-05T03:10:09;34.67;;;17.27;;
30072;SDS011;16897;52.422;13.678;2022-12-05T03:14:14;38.13;;;19.10;;
30072;SDS011;16897;52.422;13.678;2022-12-05T03:18:24;31.25;;;15.52;;
30072;SDS011;16897;52.422;13.678;2022-12-05T03:22:50;32.97;;;16.65;;
30072;SDS011;16897;52.422;13.678;2022-12-05T03:27:46;34.80;;;17.90;;
30072;SDS011;16897;52.422;13.678;2022-12-05T03:31:39;34.57;;;16.93;;
30072;SDS011;16897;52.422;13.678;2022-12-05T03:44:56;34.03;;;17.63;;
30072;SDS011;16897;52.422;13.678;2022-12-05T03:53:37;36.92;;;17.10;;
30072;SDS011;16897;52.422;13.678;2022-12-05T03:58:13;33.22;;;16.52;;
30072;SDS011;16897;52.422;13.678;2022-12-05T04:02:38;29.42;;;15.75;;
30072;SDS011;16897;52.422;13.678;2022-12-05T04:06:54;27.27;;;15.25;;
30072;SDS011;16897;52.422;13.678;2022-12-05T04:11:00;35.63;;;17.88;;
30072;SDS011;16897;52.422;13.678;2022-12-05T04:15:14;29.00;;;15.02;;
30072;SDS011;16897;52.422;13.678;2022-12-05T04:23:53;30.25;;;14.52;;
30072;SDS011;16897;52.422;13.678;2022-12-05T04:28:55;27.73;;;15.57;;
30072;SDS011;16897;52.422;13.678;2022-12-05T04:33:09;23.17;;;12.60;;
30072;SDS011;16897;52.422;13.678;2022-12-05T04:37:43;29.98;;;14.63;;
30072;SDS011;16897;52.422;13.678;2022-12-05T04:46:32;25.88;;;14.63;;
30072;SDS011;16897;52.422;13.678;2022-12-05T04:50:38;29.48;;;14.60;;
30072;SDS011;16897;52.422;13.678;2022-12-05T05:03:00;21.10;;;11.60;;
30072;SDS011;16897;52.422;13.678;2022-12-05T05:07:29;20.35;;;12.05;;
30072;SDS011;16897;52.422;13.678;2022-12-05T05:11:32;19.30;;;11.13;;
30072;SDS011;16897;52.422;13.678;2022-12-05T05:15:35;26.83;;;12.57;;
30072;SDS011;16897;52.422;13.678;2022-12-05T05:19:37;21.25;;;11.30;;
30072;SDS011;16897;52.422;13.678;2022-12-05T05:23:39;18.80;;;10.60;;
30072;SDS011;16897;52.422;13.678;2022-12-05T05:27:40;17.05;;;9.95;;
30072;SDS011;16897;52.422;13.678;2022-12-05T05:31:42;21.17;;;11.05;;
30072;SDS011;16897;52.422;13.678;2022-12-05T05:35:44;17.80;;;10.80;;
30072;SDS011;16897;52.422;13.678;2022-12-05T05:39:46;17.23;;;10.30;;
30072;SDS011;16897;52.422;13.678;2022-12-05T05:43:49;20.30;;;11.20;;
30072;SDS011;16897;52.422;13.678;2022-12-05T05:47:52;23.55;;;12.93;;
30072;SDS011;16897;52.422;13.678;2022-12-05T05:51:53;16.30;;;10.27;;
30072;SDS011;16897;52.422;13.678;2022-12-05T05:55:55;16.75;;;10.48;;
30072;SDS011;16897;52.422;13.678;2022-12-05T05:59:57;19.63;;;10.75;;
30072;SDS011;16897;52.422;13.678;2022-12-05T06:03:59;17.38;;;9.88;;
30072;SDS011;16897;52.422;13.678;2022-12-05T06:08:04;19.08;;;10.73;;
30072;SDS011;16897;52.422;13.678;2022-12-05T06:12:06;16.00;;;9.85;;
30072;SDS011;16897;52.422;13.678;2022-12-05T06:16:09;20.02;;;10.38;;
30072;SDS011;16897;52.422;13.678;2022-12-05T06:20:13;15.02;;;9.48;;
30072;SDS011;16897;52.422;13.678;2022-12-05T06:24:15;15.05;;;9.23;;
30072;SDS011;16897;52.422;13.678;2022-12-05T06:28:18;16.35;;;9.52;;
30072;SDS011;16897;52.422;13.678;2022-12-05T06:32:22;14.80;;;9.07;;
30072;SDS011;16897;52.422;13.678;2022-12-05T06:36:24;18.20;;;10.57;;
30072;SDS011;16897;52.422;13.678;2022-12-05T06:40:26;16.17;;;8.77;;
30072;SDS011;16897;52.422;13.678;2022-12-05T06:44:28;15.57;;;9.35;;
30072;SDS011;16897;52.422;13.678;2022-12-05T06:48:30;16.85;;;9.15;;
30072;SDS011;16897;52.422;13.678;2022-12-05T06:52:32;15.82;;;9.18;;
30072;SDS011;16897;52.422;13.678;2022-12-05T06:56:34;13.88;;;8.57;;
30072;SDS011;16897;52.422;13.678;2022-12-05T07:00:35;12.57;;;7.97;;
30072;SDS011;16897;52.422;13.678;2022-12-05T07:04:55;11.63;;;8.25;;
30072;SDS011;16897;52.422;13.678;2022-12-05T07:08:57;17.35;;;8.43;;
30072;SDS011;16897;52.422;13.678;2022-12-05T07:12:59;14.48;;;8.95;;
30072;SDS011;16897;52.422;13.678;2022-12-05T07:17:00;15.02;;;8.63;;
30072;SDS011;16897;52.422;13.678;2022-12-05T07:21:06;18.15;;;10.57;;
30072;SDS011;16897;52.422;13.678;2022-12-05T07:25:12;18.58;;;10.68;;
30072;SDS011;16897;52.422;13.678;2022-12-05T07:29:14;16.40;;;9.75;;
30072;SDS011;16897;52.422;13.678;2022-12-05T07:33:16;23.38;;;11.60;;
30072;SDS011;16897;52.422;13.678;2022-12-05T07:37:18;15.43;;;8.95;;
30072;SDS011;16897;52.422;13.678;2022-12-05T07:41:24;15.73;;;9.93;;
30072;SDS011;16897;52.422;13.678;2022-12-05T07:45:32;15.00;;;9.43;;
30072;SDS011;16897;52.422;13.678;2022-12-05T07:49:35;13.38;;;8.75;;
30072;SDS011;16897;52.422;13.678;2022-12-05T07:53:37;18.00;;;9.57;;
30072;SDS011;16897;52.422;13.678;2022-12-05T07:57:42;14.07;;;8.33;;
30072;SDS011;16897;52.422;13.678;2022-12-05T08:01:43;16.55;;;8.65;;
30072;SDS011;16897;52.422;13.678;2022-12-05T08:05:45;12.80;;;7.97;;
30072;SDS011;16897;52.422;13.678;2022-12-05T08:09:46;11.95;;;7.68;;
30072;SDS011;16897;52.422;13.678;2022-12-05T08:13:48;13.70;;;8.25;;
30072;SDS011;16897;52.422;13.678;2022-12-05T08:17:50;15.65;;;8.65;;
30072;SDS011;16897;52.422;13.678;2022-12-05T08:21:55;12.32;;;8.18;;
30072;SDS011;16897;52.422;13.678;2022-12-05T08:26:03;14.88;;;8.57;;
30072;SDS011;16897;52.422;13.678;2022-12-05T08:30:16;14.30;;;9.38;;
30072;SDS011;16897;52.422;13.678;2022-12-05T08:34:19;11.60;;;7.28;;
30072;SDS011;16897;52.422;13.678;2022-12-05T08:38:21;13.43;;;7.03;;
30072;SDS011;16897;52.422;13.678;2022-12-05T08:42:22;9.85;;;7.00;;
30072;SDS011;16897;52.422;13.678;2022-12-05T08:46:24;10.32;;;7.32;;
30072;SDS011;16897;52.422;13.678;2022-12-05T08:50:37;12.27;;;7.10;;
30072;SDS011;16897;52.422;13.678;2022-12-05T08:54:39;11.57;;;7.50;;
30072;SDS011;16897;52.422;13.678;2022-12-05T08:58:41;11.65;;;6.97;;
30072;SDS011;16897;52.422;13.678;2022-12-05T09:02:43;12.57;;;8.38;;
30072;SDS011;16897;52.422;13.678;2022-12-05T09:06:44;8.82;;;6.43;;
30072;SDS011;16897;52.422;13.678;2022-12-05T09:10:46;9.63;;;6.47;;
30072;SDS011;16897;52.422;13.678;2022-12-05T09:14:48;9.23;;;6.70;;
30072;SDS011;16897;52.422;13.678;2022-12-05T09:18:50;12.45;;;7.57;;
30072;SDS011;16897;52.422;13.678;2022-12-05T09:22:52;11.73;;;7.57;;
30072;SDS011;16897;52.422;13.678;2022-12-05T09:26:54;14.43;;;7.93;;
30072;SDS011;16897;52.422;13.678;2022-12-05T09:30:57;10.13;;;6.88;;
30072;SDS011;16897;52.422;13.678;2022-12-05T09:35:08;9.93;;;6.35;;
30072;SDS011;16897;52.422;13.678;2022-12-05T09:39:11;8.05;;;6.13;;
30072;SDS011;16897;52.422;13.678;2022-12-05T09:43:24;11.18;;;6.55;;
30072;SDS011;16897;52.422;13.678;2022-12-05T09:48:14;10.50;;;7.25;;
30072;SDS011;16897;52.422;13.678;2022-12-05T09:52:21;9.85;;;7.18;;
30072;SDS011;16897;52.422;13.678;2022-12-05T09:56:39;11.45;;;7.50;;
30072;SDS011;16897;52.422;13.678;2022-12-05T10:00:47;9.93;;;6.90;;
30072;SDS011;16897;52.422;13.678;2022-12-05T10:05:01;11.25;;;7.18;;
30072;SDS011;16897;52.422;13.678;2022-12-05T10:13:47;13.52;;;7.22;;
30072;SDS011;16897;52.422;13.678;2022-12-05T10:18:11;11.15;;;6.93;;
30072;SDS011;16897;52.422;13.678;2022-12-05T10:22:36;10.55;;;6.88;;
30072;SDS011;16897;52.422;13.678;2022-12-05T10:26:57;11.27;;;7.13;;
30072;SDS011;16897;52.422;13.678;2022-12-05T10:31:07;12.18;;;6.82;;
30072;SDS011;16897;52.422;13.678;2022-12-05T10:39:22;10.82;;;7.55;;
30072;SDS011;16897;52.422;13.678;2022-12-05T10:43:28;10.52;;;7.22;;
30072;SDS011;16897;52.422;13.678;2022-12-05T10:47:33;12.52;;;7.57;;
30072;SDS011;16897;52.422;13.678;2022-12-05T10:51:35;11.00;;;7.20;;
30072;SDS011;16897;52.422;13.678;2022-12-05T10:55:39;11.35;;;7.55;;
30072;SDS011;16897;52.422;13.678;2022-12-05T10:59:47;9.88;;;7.03;;
30072;SDS011;16897;52.422;13.678;2022-12-05T11:03:55;11.63;;;7.25;;
30072;SDS011;16897;52.422;13.678;2022-12-05T11:08:02;11.38;;;7.15;;
30072;SDS011;16897;52.422;13.678;2022-12-05T11:16:50;9.07;;;6.30;;
30072;SDS011;16897;52.422;13.678;2022-12-05T11:21:07;11.90;;;7.35;;
30072;SDS011;16897;52.422;13.678;2022-12-05T11:25:23;11.45;;;7.03;;
30072;SDS011;16897;52.422;13.678;2022-12-05T11:33:35;10.20;;;7.07;;
30072;SDS011;16897;52.422;13.678;2022-12-05T11:50:51;9.65;;;6.18;;
30072;SDS011;16897;52.422;13.678;2022-12-05T12:04:20;12.30;;;7.57;;
30072;SDS011;16897;52.422;13.678;2022-12-05T12:17:55;12.98;;;8.25;;
30072;SDS011;16897;52.422;13.678;2022-12-05T12:27:04;13.18;;;7.70;;
30072;SDS011;16897;52.422;13.678;2022-12-05T12:31:34;12.25;;;7.43;;
30072;SDS011;16897;52.422;13.678;2022-12-05T12:35:46;12.18;;;7.60;;
30072;SDS011;16897;52.422;13.678;2022-12-05T12:50:06;12.30;;;8.05;;
30072;SDS011;16897;52.422;13.678;2022-12-05T12:59:04;17.77;;;8.98;;
30072;SDS011;16897;52.422;13.678;2022-12-05T13:03:40;15.90;;;9.38;;
30072;SDS011;16897;52.422;13.678;2022-12-05T13:07:58;14.60;;;8.88;;
30072;SDS011;16897;52.422;13.678;2022-12-05T13:12:16;18.33;;;10.65;;
30072;SDS011;16897;52.422;13.678;2022-12-05T13:16:27;15.50;;;9.73;;
30072;SDS011;16897;52.422;13.678;2022-12-05T13:20:40;20.05;;;10.15;;
30072;SDS011;16897;52.422;13.678;2022-12-05T13:24:43;19.20;;;10.02;;
30072;SDS011;16897;52.422;13.678;2022-12-05T13:28:51;18.60;;;10.45;;
30072;SDS011;16897;52.422;13.678;2022-12-05T13:33:04;15.77;;;9.65;;
30072;SDS011;16897;52.422;13.678;2022-12-05T13:37:10;16.05;;;10.38;;
30072;SDS011;16897;52.422;13.678;2022-12-05T13:41:47;13.93;;;8.68;;
30072;SDS011;16897;52.422;13.678;2022-12-05T13:46:28;16.70;;;9.45;;
30072;SDS011;16897;52.422;13.678;2022-12-05T13:54:52;17.35;;;10.45;;
30072;SDS011;16897;52.422;13.678;2022-12-05T13:59:10;17.27;;;9.48;;
30072;SDS011;16897;52.422;13.678;2022-12-05T14:07:36;19.73;;;10.43;;
30072;SDS011;16897;52.422;13.678;2022-12-05T14:20:27;20.80;;;10.73;;
30072;SDS011;16897;52.422;13.678;2022-12-05T14:29:37;19.17;;;9.90;;
30072;SDS011;16897;52.422;13.678;2022-12-05T14:38:29;23.70;;;11.48;;
30072;SDS011;16897;52.422;13.678;2022-12-05T14:42:37;21.60;;;10.93;;
30072;SDS011;16897;52.422;13.678;2022-12-05T14:46:54;18.90;;;10.65;;
30072;SDS011;16897;52.422;13.678;2022-12-05T14:50:58;21.02;;;10.85;;
30072;SDS011;16897;52.422;13.678;2022-12-05T14:55:05;23.10;;;12.00;;
30072;SDS011;16897;52.422;13.678;2022-12-05T14:59:19;22.37;;;11.43;;
30072;SDS011;16897;52.422;13.678;2022-12-05T15:08:08;21.27;;;10.85;;
30072;SDS011;16897;52.422;13.678;2022-12-05T15:12:18;22.35;;;9.68;;
30072;SDS011;16897;52.422;13.678;2022-12-05T15:25:29;20.10;;;10.35;;
30072;SDS011;16897;52.422;13.678;2022-12-05T15:29:32;20.80;;;11.00;;
30072;SDS011;16897;52.422;13.678;2022-12-05T15:33:35;20.95;;;11.43;;
30072;SDS011;16897;52.422;13.678;2022-12-05T15:37:49;21.48;;;11.38;;
30072;SDS011;16897;52.422;13.678;2022-12-05T15:41:58;23.98;;;11.38;;
30072;SDS011;16897;52.422;13.678;2022-12-05T15:46:21;22.73;;;10.73;;
30072;SDS011;16897;52.422;13.678;2022-12-05T15:54:32;23.67;;;11.95;;
30072;SDS011;16897;52.422;13.678;2022-12-05T16:03:02;20.30;;;10.60;;
30072;SDS011;16897;52.422;13.678;2022-12-05T16:07:18;22.42;;;11.65;;
30072;SDS011;16897;52.422;13.678;2022-12-05T16:11:22;21.77;;;10.63;;
30072;SDS011;16897;52.422;13.678;2022-12-05T16:15:24;26.75;;;12.35;;
30072;SDS011;16897;52.422;13.678;2022-12-05T16:19:28;21.30;;;11.48;;
30072;SDS011;16897;52.422;13.678;2022-12-05T16:23:31;21.60;;;11.38;;
30072;SDS011;16897;52.422;13.678;2022-12-05T16:27:34;22.40;;;11.95;;
30072;SDS011;16897;52.422;13.678;2022-12-05T16:31:37;18.98;;;10.30;;
30072;SDS011;16897;52.422;13.678;2022-12-05T16:39:43;22.08;;;11.88;;
30072;SDS011;16897;52.422;13.678;2022-12-05T16:43:45;23.05;;;11.50;;
30072;SDS011;16897;52.422;13.678;2022-12-05T16:47:51;25.40;;;11.63;;
30072;SDS011;16897;52.422;13.678;2022-12-05T16:56:15;23.98;;;11.80;;
30072;SDS011;16897;52.422;13.678;2022-12-05T17:00:22;24.13;;;12.20;;
30072;SDS011;16897;52.422;13.678;2022-12-05T17:04:23;20.77;;;10.68;;
30072;SDS011;16897;52.422;13.678;2022-12-05T17:08:26;21.23;;;11.43;;
30072;SDS011;16897;52.422;13.678;2022-12-05T17:12:27;23.60;;;11.57;;
30072;SDS011;16897;52.422;13.678;2022-12-05T17:16:29;22.55;;;11.23;;
30072;SDS011;16897;52.422;13.678;2022-12-05T17:20:31;20.13;;;11.02;;
30072;SDS011;16897;52.422;13.678;2022-12-05T17:24:32;21.88;;;11.05;;
30072;SDS011;16897;52.422;13.678;2022-12-05T17:28:34;22.63;;;11.30;;
30072;SDS011;16897;52.422;13.678;2022-12-05T17:32:35;23.85;;;12.15;;
30072;SDS011;16897;52.422;13.678;2022-12-05T17:36:37;30.58;;;16.17;;
30072;SDS011;16897;52.422;13.678;2022-12-05T17:40:39;32.28;;;16.65;;
30072;SDS011;16897;52.422;13.678;2022-12-05T17:44:40;24.85;;;13.70;;
30072;SDS011;16897;52.422;13.678;2022-12-05T17:48:42;24.67;;;12.90;;
30072;SDS011;16897;52.422;13.678;2022-12-05T17:52:45;33.53;;;14.10;;
30072;SDS011;16897;52.422;13.678;2022-12-05T17:56:48;26.05;;;12.50;;
30072;SDS011;16897;52.422;13.678;2022-12-05T18:00:50;29.20;;;12.50;;
30072;SDS011;16897;52.422;13.678;2022-12-05T18:04:52;23.90;;;12.27;;
30072;SDS011;16897;52.422;13.678;2022-12-05T18:08:53;21.83;;;11.80;;
30072;SDS011;16897;52.422;13.678;2022-12-05T18:12:55;23.88;;;11.40;;
30072;SDS011;16897;52.422;13.678;2022-12-05T18:16:57;27.33;;;13.68;;
30072;SDS011;16897;52.422;13.678;2022-12-05T18:21:03;27.15;;;14.13;;
30072;SDS011;16897;52.422;13.678;2022-12-05T18:25:07;33.50;;;15.02;;
30072;SDS011;16897;52.422;13.678;2022-12-05T18:29:10;30.13;;;13.25;;
30072;SDS011;16897;52.422;13.678;2022-12-05T18:33:12;29.08;;;14.13;;
30072;SDS011;16897;52.422;13.678;2022-12-05T18:37:13;25.05;;;12.38;;
30072;SDS011;16897;52.422;13.678;2022-12-05T18:41:16;21.95;;;10.93;;
30072;SDS011;16897;52.422;13.678;2022-12-05T18:45:17;24.30;;;11.80;;
30072;SDS011;16897;52.422;13.678;2022-12-05T18:49:19;24.73;;;12.15;;
30072;SDS011;16897;52.422;13.678;2022-12-05T18:53:21;24.15;;;12.32;;
30072;SDS011;16897;52.422;13.678;2022-12-05T18:57:22;26.70;;;13.10;;
30072;SDS011;16897;52.422;13.678;2022-12-05T19:01:25;28.50;;;13.57;;
30072;SDS011;16897;52.422;13.678;2022-12-05T19:05:29;26.85;;;12.63;;
30072;SDS011;16897;52.422;13.678;2022-12-05T19:09:31;26.35;;;12.00;;
30072;SDS011;16897;52.422;13.678;2022-12-05T19:13:33;25.42;;;12.73;;
30072;SDS011;16897;52.422;13.678;2022-12-05T19:17:36;29.63;;;13.55;;
30072;SDS011;16897;52.422;13.678;2022-12-05T19:21:38;23.30;;;12.82;;
30072;SDS011;16897;52.422;13.678;2022-12-05T19:25:40;25.77;;;13.55;;
30072;SDS011;16897;52.422;13.678;2022-12-05T19:29:42;28.70;;;14.32;;
30072;SDS011;16897;52.422;13.678;2022-12-05T19:33:45;25.67;;;12.55;;
30072;SDS011;16897;52.422;13.678;2022-12-05T19:37:49;25.70;;;12.57;;
30072;SDS011;16897;52.422;13.678;2022-12-05T19:41:52;30.30;;;14.02;;
30072;SDS011;16897;52.422;13.678;2022-12-05T19:45:56;30.52;;;14.57;;
30072;SDS011;16897;52.422;13.678;2022-12-05T19:49:58;30.90;;;14.80;;
30072;SDS011;16897;52.422;13.678;2022-12-05T19:54:00;29.38;;;14.10;;
30072;SDS011;16897;52.422;13.678;2022-12-05T19:58:04;29.88;;;13.73;;
30072;SDS011;16897;52.422;13.678;2022-12-05T20:02:06;28.30;;;12.77;;
30072;SDS011;16897;52.422;13.678;2022-12-05T20:06:08;28.17;;;12.88;;
30072;SDS011;16897;52.422;13.678;2022-12-05T20:10:10;26.63;;;12.50;;
30072;SDS011;16897;52.422;13.678;2022-12-05T20:14:12;25.02;;;12.93;;
30072;SDS011;16897;52.422;13.678;2022-12-05T20:18:14;21.20;;;11.88;;
30072;SDS011;16897;52.422;13.678;2022-12-05T20:22:17;20.65;;;11.23;;
30072;SDS011;16897;52.422;13.678;2022-12-05T20:26:25;22.77;;;12.10;;
30072;SDS011;16897;52.422;13.678;2022-12-05T20:30:31;20.23;;;10.50;;
30072;SDS011;16897;52.422;13.678;2022-12-05T20:34:33;17.40;;;10.38;;
30072;SDS011;16897;52.422;13.678;2022-12-05T20:38:35;20.15;;;11.05;;
30072;SDS011;16897;52.422;13.678;2022-12-05T20:42:37;18.98;;;10.02;;
30072;SDS011;16897;52.422;13.678;2022-12-05T20:46:39;18.02;;;10.48;;
30072;SDS011;16897;52.422;13.678;2022-12-05T20:50:41;17.23;;;10.02;;
30072;SDS011;16897;52.422;13.678;2022-12-05T20:54:43;19.48;;;10.15;;
30072;SDS011;16897;52.422;13.678;2022-12-05T20:58:46;14.27;;;9.50;;
30072;SDS011;16897;52.422;13.678;2022-12-05T21:02:50;15.70;;;9.02;;
30072;SDS011;16897;52.422;13.678;2022-12-05T21:06:52;14.65;;;8.93;;
30072;SDS011;16897;52.422;13.678;2022-12-05T21:10:54;14.95;;;8.07;;
30072;SDS011;16897;52.422;13.678;2022-12-05T21:14:56;11.77;;;7.60;;
30072;SDS011;16897;52.422;13.678;2022-12-05T21:18:58;12.27;;;7.82;;
30072;SDS011;16897;52.422;13.678;2022-12-05T21:23:00;10.73;;;7.32;;
30072;SDS011;16897;52.422;13.678;2022-12-05T21:27:05;10.40;;;6.90;;
30072;SDS011;16897;52.422;13.678;2022-12-05T21:31:11;9.98;;;7.57;;
30072;SDS011;16897;52.422;13.678;2022-12-05T21:35:16;10.77;;;7.18;;
30072;SDS011;16897;52.422;13.678;2022-12-05T21:39:17;11.32;;;7.47;;
30072;SDS011;16897;52.422;13.678;2022-12-05T21:43:19;11.15;;;7.50;;
30072;SDS011;16897;52.422;13.678;2022-12-05T21:47:20;12.20;;;7.13;;
30072;SDS011;16897;52.422;13.678;2022-12-05T21:51:22;8.68;;;6.68;;
30072;SDS011;16897;52.422;13.678;2022-12-05T21:55:24;10.98;;;6.57;;
30072;SDS011;16897;52.422;13.678;2022-12-05T21:59:25;10.15;;;6.05;;
30072;SDS011;16897;52.422;13.678;2022-12-05T22:03:28;10.07;;;6.38;;
30072;SDS011;16897;52.422;13.678;2022-12-05T22:07:30;10.57;;;7.10;;
30072;SDS011;16897;52.422;13.678;2022-12-05T22:11:32;8.60;;;5.65;;
30072;SDS011;16897;52.422;13.678;2022-12-05T22:15:33;11.57;;;6.53;;
30072;SDS011;16897;52.422;13.678;2022-12-05T22:19:35;8.50;;;5.80;;
30072;SDS011;16897;52.422;13.678;2022-12-05T22:23:36;9.80;;;6.35;;
30072;SDS011;16897;52.422;13.678;2022-12-05T22:27:38;9.73;;;5.68;;
30072;SDS011;16897;52.422;13.678;2022-12-05T22:31:40;10.43;;;6.85;;
30072;SDS011;16897;52.422;13.678;2022-12-05T22:35:42;9.23;;;5.95;;
30072;SDS011;16897;52.422;13.678;2022-12-05T22:39:49;11.30;;;6.45;;
30072;SDS011;16897;52.422;13.678;2022-12-05T22:43:55;8.35;;;6.07;;
30072;SDS011;16897;52.422;13.678;2022-12-05T22:47:59;10.07;;;6.28;;
30072;SDS011;16897;52.422;13.678;2022-12-05T22:52:01;11.15;;;6.43;;
30072;SDS011;16897;52.422;13.678;2022-12-05T22:56:07;9.63;;;6.45;;
30072;SDS011;16897;52.422;13.678;2022-12-05T23:00:11;10.38;;;6.25;;
30072;SDS011;16897;52.422;13.678;2022-12-05T23:04:13;8.90;;;6.72;;
30072;SDS011;16897;52.422;13.678;2022-12-05T23:08:15;10.65;;;6.22;;
30072;SDS011;16897;52.422;13.678;2022-12-05T23:12:17;10.93;;;6.88;;
30072;SDS011;16897;52.422;13.678;2022-12-05T23:16:20;9.90;;;6.78;;
30072;SDS011;16897;52.422;13.678;2022-12-05T23:20:25;10.20;;;6.80;;
30072;SDS011;16897;52.422;13.678;2022-12-05T23:24:28;9.48;;;6.13;;
30072;SDS011;16897;52.422;13.678;2022-12-05T23:28:29;8.30;;;6.25;;
30072;SDS011;16897;52.422;13.678;2022-12-05T23:32:31;9.13;;;5.63;;
30072;SDS011;16897;52.422;13.678;2022-12-05T23:36:33;10.07;;;6.38;;
30072;SDS011;16897;52.422;13.678;2022-12-05T23:40:35;9.60;;;6.13;;
30072;SDS011;16897;52.422;13.678;2022-12-05T23:44:36;10.73;;;6.68;;
30072;SDS011;16897;52.422;13.678;2022-12-05T23:48:38;11.05;;;6.28;;
30072;SDS011;16897;52.422;13.678;2022-12-05T23:52:40;10.50;;;6.57;;
30072;SDS011;16897;52.422;13.678;2022-12-05T23:56:42;9.13;;;5.95;;
